createdAt,value
2018-04-10T00:00:26.938Z,0.00
2018-04-10T00:01:26.994Z,0.00
2018-04-10T00:02:27.057Z,0.00
2018-04-10T00:03:27.116Z,0.00
2018-04-10T00:04:27.177Z,0.00
2018-04-10T00:05:27.487Z,0.00
2018-04-10T00:06:27.298Z,0.00
2018-04-10T00:07:27.360Z,0.00
2018-04-10T00:08:27.418Z,0.00
2018-04-10T00:09:27.479Z,0.00
2018-04-10T00:10:27.692Z,0.00
2018-04-10T00:11:27.602Z,0.00
2018-04-10T00:12:27.662Z,0.00
2018-04-10T00:13:27.721Z,0.00
2018-04-10T00:14:27.782Z,0.00
2018-04-10T00:15:27.843Z,0.00
2018-04-10T00:16:27.904Z,0.00
2018-04-10T00:17:27.965Z,0.00
2018-04-10T00:18:28.029Z,0.00
2018-04-10T00:19:28.085Z,0.00
2018-04-10T00:20:28.146Z,0.00
2018-04-10T00:21:28.360Z,0.00
2018-04-10T00:22:28.268Z,0.00
2018-04-10T00:23:28.326Z,0.00
2018-04-10T00:24:28.388Z,0.00
2018-04-10T00:25:28.449Z,0.00
2018-04-10T00:26:28.507Z,0.00
2018-04-10T00:27:28.568Z,0.00
2018-04-10T00:28:28.630Z,0.00
2018-04-10T00:29:28.688Z,0.00
2018-04-10T00:30:28.750Z,0.00
2018-04-10T00:31:28.810Z,0.00
2018-04-10T00:32:28.870Z,0.00
2018-04-10T00:33:28.931Z,0.00
2018-04-10T00:34:28.992Z,0.00
2018-04-10T00:35:29.053Z,0.00
2018-04-10T00:36:29.113Z,0.00
2018-04-10T00:37:29.171Z,0.00
2018-04-10T00:38:29.233Z,0.00
2018-04-10T00:39:29.294Z,0.00
2018-04-10T00:40:29.354Z,0.00
2018-04-10T00:41:29.413Z,0.00
2018-04-10T00:42:29.474Z,0.00
2018-04-10T00:43:29.535Z,0.00
2018-04-10T00:44:29.595Z,0.00
2018-04-10T00:45:29.658Z,0.00
2018-04-10T00:46:29.715Z,0.00
2018-04-10T00:47:29.778Z,0.00
2018-04-10T00:48:29.839Z,0.00
2018-04-10T00:49:29.895Z,0.00
2018-04-10T00:50:29.961Z,0.00
2018-04-10T00:51:30.017Z,0.00
2018-04-10T00:52:30.077Z,0.00
2018-04-10T00:53:30.137Z,0.00
2018-04-10T00:54:30.196Z,0.00
2018-04-10T00:55:30.258Z,0.00
2018-04-10T00:56:30.319Z,0.00
2018-04-10T00:57:30.378Z,0.00
2018-04-10T00:58:30.438Z,0.00
2018-04-10T00:59:30.499Z,0.00
2018-04-10T01:00:30.560Z,0.00
2018-04-10T01:01:30.617Z,0.00
2018-04-10T01:02:30.677Z,0.00
2018-04-10T01:03:30.739Z,0.00
2018-04-10T01:04:30.799Z,0.00
2018-04-10T01:05:30.858Z,0.00
2018-04-10T01:06:30.918Z,0.00
2018-04-10T01:07:30.980Z,0.00
2018-04-10T01:08:31.040Z,0.00
2018-04-10T01:09:31.099Z,0.00
2018-04-10T01:10:31.158Z,0.00
2018-04-10T01:11:31.218Z,0.00
2018-04-10T01:12:31.280Z,0.00
2018-04-10T01:13:31.338Z,0.00
2018-04-10T01:14:31.399Z,0.00
2018-04-10T01:15:31.459Z,0.00
2018-04-10T01:16:31.520Z,0.00
2018-04-10T01:17:31.579Z,0.00
2018-04-10T01:18:31.640Z,0.00
2018-04-10T01:19:31.700Z,0.00
2018-04-10T01:20:31.761Z,0.00
2018-04-10T01:21:31.821Z,0.00
2018-04-10T01:22:31.916Z,0.00
2018-04-10T01:23:31.940Z,0.00
2018-04-10T01:24:32.001Z,0.00
2018-04-10T01:25:32.059Z,0.00
2018-04-10T01:26:32.120Z,0.00
2018-04-10T01:27:32.180Z,0.00
2018-04-10T01:28:32.241Z,0.00
2018-04-10T01:29:32.300Z,0.00
2018-04-10T01:30:32.360Z,0.00
2018-04-10T01:31:32.421Z,0.00
2018-04-10T01:32:32.479Z,0.00
2018-04-10T01:33:32.540Z,0.00
2018-04-10T01:34:32.600Z,0.00
2018-04-10T01:35:32.661Z,0.00
2018-04-10T01:36:32.720Z,0.00
2018-04-10T01:37:32.780Z,0.00
2018-04-10T01:38:32.844Z,0.00
2018-04-10T01:39:32.899Z,0.00
2018-04-10T01:40:32.963Z,0.00
2018-04-10T01:41:33.053Z,0.00
2018-04-10T01:42:33.079Z,0.00
2018-04-10T01:43:33.140Z,0.00
2018-04-10T01:44:33.202Z,0.00
2018-04-10T01:45:33.260Z,0.00
2018-04-10T01:46:33.324Z,0.00
2018-04-10T01:47:33.381Z,0.00
2018-04-10T01:48:33.441Z,0.00
2018-04-10T01:49:33.525Z,0.00
2018-04-10T01:50:33.559Z,0.00
2018-04-10T01:51:33.621Z,0.00
2018-04-10T01:52:33.680Z,0.00
2018-04-10T01:53:33.739Z,0.00
2018-04-10T01:54:33.800Z,0.00
2018-04-10T01:55:33.860Z,0.00
2018-04-10T01:56:33.921Z,0.00
2018-04-10T01:57:33.980Z,0.00
2018-04-10T01:58:34.043Z,0.00
2018-04-10T01:59:34.100Z,0.00
2018-04-10T02:00:34.166Z,0.00
2018-04-10T02:01:34.220Z,0.00
2018-04-10T02:02:34.280Z,0.00
2018-04-10T02:03:34.341Z,0.00
2018-04-10T02:04:34.402Z,0.00
2018-04-10T02:05:34.460Z,0.00
2018-04-10T02:06:34.520Z,0.00
2018-04-10T02:07:34.581Z,0.00
2018-04-10T02:08:34.645Z,0.00
2018-04-10T02:09:34.700Z,0.00
2018-04-10T02:10:34.760Z,0.00
2018-04-10T02:11:34.821Z,0.00
2018-04-10T02:12:34.881Z,0.00
2018-04-10T02:13:34.939Z,0.00
2018-04-10T02:14:35.000Z,0.00
2018-04-10T02:15:35.061Z,0.00
2018-04-10T02:16:35.123Z,0.00
2018-04-10T02:17:35.180Z,0.00
2018-04-10T02:18:35.240Z,0.00
2018-04-10T02:19:35.303Z,0.00
2018-04-10T02:20:35.360Z,0.00
2018-04-10T02:21:35.421Z,0.00
2018-04-10T02:22:35.481Z,0.00
2018-04-10T02:23:35.543Z,0.00
2018-04-10T02:24:35.601Z,0.00
2018-04-10T02:25:35.661Z,0.00
2018-04-10T02:26:35.737Z,0.00
2018-04-10T02:27:35.797Z,0.00
2018-04-10T02:28:35.859Z,0.00
2018-04-10T02:29:35.910Z,0.00
2018-04-10T02:30:35.960Z,0.00
2018-04-10T02:31:36.021Z,0.00
2018-04-10T02:32:36.082Z,0.00
2018-04-10T02:33:36.143Z,0.00
2018-04-10T02:34:36.199Z,0.00
2018-04-10T02:35:36.261Z,0.00
2018-04-10T02:36:36.322Z,0.00
2018-04-10T02:37:36.380Z,0.00
2018-04-10T02:38:36.440Z,0.00
2018-04-10T02:39:36.500Z,0.00
2018-04-10T02:40:36.567Z,0.00
2018-04-10T02:41:36.619Z,0.00
2018-04-10T02:42:36.679Z,0.00
2018-04-10T02:43:36.740Z,0.00
2018-04-10T02:44:36.800Z,0.00
2018-04-10T02:45:36.861Z,0.00
2018-04-10T02:46:36.918Z,0.00
2018-04-10T02:47:37.229Z,0.00
2018-04-10T02:48:37.039Z,0.00
2018-04-10T02:49:37.099Z,0.00
2018-04-10T02:50:37.158Z,0.00
2018-04-10T02:51:37.219Z,0.00
2018-04-10T02:52:37.279Z,0.00
2018-04-10T02:53:37.589Z,0.00
2018-04-10T02:54:37.398Z,0.00
2018-04-10T02:55:37.458Z,0.00
2018-04-10T02:56:37.518Z,0.00
2018-04-10T02:57:37.576Z,0.00
2018-04-10T02:58:37.886Z,0.00
2018-04-10T02:59:37.696Z,0.00
2018-04-10T03:00:37.758Z,0.00
2018-04-10T03:01:37.814Z,0.00
2018-04-10T03:02:37.875Z,0.00
2018-04-10T03:03:37.934Z,0.00
2018-04-10T03:04:38.247Z,0.00
2018-04-10T03:05:38.054Z,0.00
2018-04-10T03:06:38.115Z,0.00
2018-04-10T03:07:38.176Z,0.00
2018-04-10T03:08:38.235Z,0.00
2018-04-10T03:09:38.296Z,0.00
2018-04-10T03:10:38.353Z,0.00
2018-04-10T03:11:38.413Z,0.00
2018-04-10T03:12:38.473Z,0.00
2018-04-10T03:13:38.531Z,0.00
2018-04-10T03:14:38.590Z,0.00
2018-04-10T03:15:38.651Z,0.00
2018-04-10T03:16:38.710Z,0.00
2018-04-10T03:17:38.768Z,0.00
2018-04-10T03:18:38.830Z,0.00
2018-04-10T03:19:38.889Z,0.00
2018-04-10T03:20:38.949Z,0.00
2018-04-10T03:21:39.008Z,0.00
2018-04-10T03:22:39.067Z,0.00
2018-04-10T03:23:39.127Z,0.00
2018-04-10T03:24:39.188Z,0.00
2018-04-10T03:25:39.246Z,0.00
2018-04-10T03:26:39.306Z,0.00
2018-04-10T03:27:39.365Z,0.00
2018-04-10T03:28:39.425Z,0.00
2018-04-10T03:29:39.485Z,0.00
2018-04-10T03:30:39.544Z,0.00
2018-04-10T03:31:39.603Z,0.00
2018-04-10T03:32:39.664Z,0.00
2018-04-10T03:33:39.722Z,0.00
2018-04-10T03:34:39.783Z,0.00
2018-04-10T03:35:39.854Z,0.00
2018-04-10T03:36:39.942Z,0.00
2018-04-10T03:37:39.961Z,0.00
2018-04-10T03:38:40.021Z,0.00
2018-04-10T03:39:40.081Z,0.00
2018-04-10T03:40:40.144Z,0.00
2018-04-10T03:41:40.203Z,0.00
2018-04-10T03:42:40.259Z,0.00
2018-04-10T03:43:40.322Z,0.00
2018-04-10T03:44:40.379Z,0.00
2018-04-10T03:45:40.438Z,0.00
2018-04-10T03:46:40.498Z,0.00
2018-04-10T03:47:40.557Z,0.00
2018-04-10T03:48:40.618Z,0.00
2018-04-10T03:49:40.826Z,0.00
2018-04-10T03:50:40.738Z,0.00
2018-04-10T03:51:40.795Z,0.00
2018-04-10T03:52:40.857Z,0.00
2018-04-10T03:53:40.913Z,0.00
2018-04-10T03:54:40.974Z,0.00
2018-04-10T03:55:41.052Z,0.00
2018-04-10T03:56:41.094Z,0.00
2018-04-10T03:57:41.153Z,0.00
2018-04-10T03:58:41.229Z,0.00
2018-04-10T03:59:41.273Z,0.00
2018-04-10T04:00:41.332Z,0.00
2018-04-10T04:01:41.391Z,0.00
2018-04-10T04:02:41.451Z,0.00
2018-04-10T04:03:41.511Z,0.00
2018-04-10T04:04:41.571Z,0.00
2018-04-10T04:05:41.632Z,0.00
2018-04-10T04:06:41.690Z,0.00
2018-04-10T04:07:41.748Z,0.00
2018-04-10T04:08:41.809Z,0.00
2018-04-10T04:09:41.867Z,0.00
2018-04-10T04:10:41.928Z,0.00
2018-04-10T04:11:42.003Z,0.00
2018-04-10T04:12:42.046Z,0.00
2018-04-10T04:13:42.105Z,0.00
2018-04-10T04:14:42.164Z,0.00
2018-04-10T04:15:42.223Z,0.00
2018-04-10T04:16:42.284Z,0.00
2018-04-10T04:17:42.342Z,0.00
2018-04-10T04:18:42.403Z,4.00
2018-04-10T04:19:42.461Z,4.00
2018-04-10T04:20:42.519Z,4.00
2018-04-10T04:21:42.580Z,4.00
2018-04-10T04:22:42.642Z,4.00
2018-04-10T04:23:42.700Z,4.00
2018-04-10T04:24:42.758Z,4.00
2018-04-10T04:25:42.815Z,8.00
2018-04-10T04:26:42.874Z,8.00
2018-04-10T04:27:42.935Z,8.00
2018-04-10T04:28:42.994Z,12.00
2018-04-10T04:29:43.056Z,12.00
2018-04-10T04:30:43.111Z,16.00
2018-04-10T04:31:43.172Z,16.00
2018-04-10T04:32:43.233Z,20.00
2018-04-10T04:33:43.290Z,20.00
2018-04-10T04:34:43.347Z,28.00
2018-04-10T04:35:43.409Z,28.00
2018-04-10T04:36:43.467Z,32.00
2018-04-10T04:37:43.528Z,36.00
2018-04-10T04:38:43.586Z,40.00
2018-04-10T04:39:43.644Z,44.00
2018-04-10T04:40:43.704Z,52.00
2018-04-10T04:41:43.762Z,56.00
2018-04-10T04:42:43.821Z,60.00
2018-04-10T04:43:43.880Z,64.00
2018-04-10T04:44:43.943Z,68.00
2018-04-10T04:45:43.999Z,68.00
2018-04-10T04:46:44.057Z,72.00
2018-04-10T04:47:44.117Z,76.00
2018-04-10T04:48:44.176Z,76.00
2018-04-10T04:49:44.235Z,80.00
2018-04-10T04:50:44.296Z,84.00
2018-04-10T04:51:44.353Z,84.00
2018-04-10T04:52:44.411Z,92.00
2018-04-10T04:53:44.470Z,92.00
2018-04-10T04:54:44.529Z,96.00
2018-04-10T04:55:44.636Z,100.00
2018-04-10T04:56:44.648Z,108.00
2018-04-10T04:57:44.707Z,120.00
2018-04-10T04:58:44.768Z,136.00
2018-04-10T04:59:44.826Z,148.00
2018-04-10T05:00:44.886Z,168.00
2018-04-10T05:01:44.943Z,196.00
2018-04-10T05:02:45.003Z,212.00
2018-04-10T05:03:45.069Z,248.00
2018-04-10T05:04:45.123Z,280.00
2018-04-10T05:05:45.180Z,308.00
2018-04-10T05:06:45.918Z,336.00
2018-04-10T05:07:45.301Z,352.00
2018-04-10T05:08:45.364Z,368.00
2018-04-10T05:09:45.420Z,372.00
2018-04-10T05:10:45.476Z,376.00
2018-04-10T05:11:45.536Z,400.00
2018-04-10T05:12:45.596Z,420.00
2018-04-10T05:13:45.656Z,448.00
2018-04-10T05:14:45.712Z,472.00
2018-04-10T05:15:46.126Z,496.00
2018-04-10T05:16:46.158Z,532.00
2018-04-10T05:17:46.256Z,580.00
2018-04-10T05:18:45.949Z,632.00
2018-04-10T05:19:46.008Z,700.00
2018-04-10T05:20:46.067Z,768.00
2018-04-10T05:21:46.126Z,828.00
2018-04-10T05:22:46.186Z,860.00
2018-04-10T05:23:46.789Z,872.00
2018-04-10T05:24:46.307Z,864.00
2018-04-10T05:25:46.364Z,840.00
2018-04-10T05:26:46.526Z,812.00
2018-04-10T05:27:46.482Z,780.00
2018-04-10T05:28:46.543Z,764.00
2018-04-10T05:29:46.600Z,756.00
2018-04-10T05:30:46.660Z,760.00
2018-04-10T05:31:46.719Z,772.00
2018-04-10T05:32:46.780Z,796.00
2018-04-10T05:33:46.839Z,828.00
2018-04-10T05:34:46.898Z,868.00
2018-04-10T05:35:46.958Z,912.00
2018-04-10T05:36:47.018Z,944.00
2018-04-10T05:37:47.077Z,984.00
2018-04-10T05:38:47.136Z,1016.00
2018-04-10T05:39:47.198Z,1068.00
2018-04-10T05:40:47.255Z,1168.00
2018-04-10T05:41:47.313Z,1296.00
2018-04-10T05:42:47.373Z,1440.00
2018-04-10T05:43:47.435Z,1592.00
2018-04-10T05:44:47.499Z,1736.00
2018-04-10T05:45:47.556Z,1860.00
2018-04-10T05:46:47.611Z,1976.00
2018-04-10T05:47:47.671Z,2076.00
2018-04-10T05:48:47.729Z,2164.00
2018-04-10T05:49:48.372Z,2224.00
2018-04-10T05:50:47.850Z,2268.00
2018-04-10T05:51:47.908Z,2288.00
2018-04-10T05:52:47.969Z,2276.00
2018-04-10T05:53:48.026Z,2256.00
2018-04-10T05:54:48.086Z,2244.00
2018-04-10T05:55:48.147Z,2260.00
2018-04-10T05:56:48.206Z,2296.00
2018-04-10T05:57:48.266Z,2336.00
2018-04-10T05:58:48.325Z,2392.00
2018-04-10T05:59:48.386Z,2464.00
2018-04-10T06:00:48.444Z,2544.00
2018-04-10T06:01:48.503Z,2624.00
2018-04-10T06:02:49.123Z,2688.00
2018-04-10T06:03:49.512Z,2744.00
2018-04-10T06:04:48.683Z,2788.00
2018-04-10T06:05:48.744Z,2852.00
2018-04-10T06:06:48.803Z,2944.00
2018-04-10T06:07:48.863Z,3080.00
2018-04-10T06:08:48.921Z,3240.00
2018-04-10T06:09:48.980Z,3416.00
2018-04-10T06:10:49.041Z,3640.00
2018-04-10T06:11:49.110Z,3924.00
2018-04-10T06:12:49.160Z,4192.00
2018-04-10T06:13:49.219Z,4432.00
2018-04-10T06:14:49.279Z,4636.00
2018-04-10T06:15:49.354Z,4808.00
2018-04-10T06:16:49.399Z,4952.00
2018-04-10T06:17:49.458Z,5072.00
2018-04-10T06:18:49.518Z,5156.00
2018-04-10T06:19:49.579Z,5228.00
2018-04-10T06:20:49.651Z,5308.00
2018-04-10T06:21:49.710Z,5396.00
2018-04-10T06:22:49.761Z,5468.00
2018-04-10T06:23:49.821Z,5552.00
2018-04-10T06:24:49.882Z,5668.00
2018-04-10T06:25:49.939Z,5840.00
2018-04-10T06:26:50.001Z,6032.00
2018-04-10T06:27:50.064Z,6184.00
2018-04-10T06:28:50.121Z,6280.00
2018-04-10T06:29:50.180Z,6288.00
2018-04-10T06:30:50.240Z,6280.00
2018-04-10T06:31:50.302Z,6296.00
2018-04-10T06:32:50.362Z,6344.00
2018-04-10T06:33:50.422Z,6440.00
2018-04-10T06:34:50.482Z,6512.00
2018-04-10T06:35:51.174Z,6552.00
2018-04-10T06:36:50.604Z,6540.00
2018-04-10T06:37:50.662Z,6496.00
2018-04-10T06:38:50.723Z,6488.00
2018-04-10T06:39:50.787Z,6572.00
2018-04-10T06:40:51.675Z,6712.00
2018-04-10T06:41:50.936Z,6836.00
2018-04-10T06:42:51.321Z,6952.00
2018-04-10T06:43:51.024Z,7052.00
2018-04-10T06:44:51.086Z,7108.00
2018-04-10T06:45:51.146Z,7076.00
2018-04-10T06:46:51.207Z,6916.00
2018-04-10T06:47:51.623Z,6680.00
2018-04-10T06:48:51.328Z,6588.00
2018-04-10T06:49:51.387Z,6852.00
2018-04-10T06:50:51.448Z,7348.00
2018-04-10T06:51:51.509Z,7960.00
2018-04-10T06:52:51.569Z,8320.00
2018-04-10T06:53:51.629Z,8364.00
2018-04-10T06:54:51.688Z,8308.00
2018-04-10T06:55:51.753Z,8112.00
2018-04-10T06:56:51.830Z,7824.00
2018-04-10T06:57:51.871Z,7388.00
2018-04-10T06:58:51.932Z,6748.00
2018-04-10T06:59:51.992Z,6112.00
2018-04-10T07:00:52.053Z,5500.00
2018-04-10T07:01:52.111Z,5076.00
2018-04-10T07:02:52.172Z,4836.00
2018-04-10T07:03:52.233Z,4660.00
2018-04-10T07:04:52.862Z,4500.00
2018-04-10T07:05:52.355Z,4324.00
2018-04-10T07:06:52.416Z,4324.00
2018-04-10T07:07:53.197Z,4412.00
2018-04-10T07:08:52.536Z,4544.00
2018-04-10T07:09:52.600Z,4248.00
2018-04-10T07:10:52.656Z,3808.00
2018-04-10T07:11:52.717Z,3540.00
2018-04-10T07:12:52.778Z,3464.00
2018-04-10T07:13:52.837Z,3472.00
2018-04-10T07:14:52.898Z,3452.00
2018-04-10T07:15:52.957Z,3476.00
2018-04-10T07:16:53.019Z,3524.00
2018-04-10T07:17:53.078Z,3676.00
2018-04-10T07:18:53.139Z,4000.00
2018-04-10T07:19:53.199Z,4312.00
2018-04-10T07:20:53.280Z,4412.00
2018-04-10T07:21:53.319Z,4152.00
2018-04-10T07:22:53.379Z,3800.00
2018-04-10T07:23:53.443Z,3548.00
2018-04-10T07:24:53.504Z,3596.00
2018-04-10T07:25:53.561Z,3900.00
2018-04-10T07:26:53.621Z,4408.00
2018-04-10T07:27:53.682Z,5040.00
2018-04-10T07:28:53.743Z,5236.00
2018-04-10T07:29:53.804Z,5412.00
2018-04-10T07:30:53.864Z,5392.00
2018-04-10T07:31:53.927Z,5508.00
2018-04-10T07:32:53.985Z,5716.00
2018-04-10T07:33:54.044Z,5892.00
2018-04-10T07:34:54.105Z,6156.00
2018-04-10T07:35:54.165Z,6448.00
2018-04-10T07:36:54.225Z,6396.00
2018-04-10T07:37:54.285Z,6200.00
2018-04-10T07:38:54.347Z,6268.00
2018-04-10T07:39:54.407Z,6504.00
2018-04-10T07:40:54.777Z,6808.00
2018-04-10T07:41:54.526Z,6944.00
2018-04-10T07:42:55.155Z,6840.00
2018-04-10T07:43:54.647Z,6608.00
2018-04-10T07:44:54.708Z,6456.00
2018-04-10T07:45:54.770Z,6304.00
2018-04-10T07:46:54.830Z,6284.00
2018-04-10T07:47:54.892Z,6208.00
2018-04-10T07:48:54.952Z,6036.00
2018-04-10T07:49:55.010Z,6220.00
2018-04-10T07:50:55.072Z,6580.00
2018-04-10T07:51:55.133Z,7008.00
2018-04-10T07:52:55.193Z,7156.00
2018-04-10T07:53:55.254Z,7080.00
2018-04-10T07:54:55.315Z,7056.00
2018-04-10T07:55:55.375Z,7072.00
2018-04-10T07:56:55.437Z,7112.00
2018-04-10T07:57:55.497Z,7056.00
2018-04-10T07:58:55.558Z,6984.00
2018-04-10T07:59:55.618Z,7104.00
2018-04-10T08:00:55.680Z,7412.00
2018-04-10T08:01:55.742Z,7896.00
2018-04-10T08:02:55.801Z,8384.00
2018-04-10T08:03:56.185Z,9028.00
2018-04-10T08:04:55.924Z,9988.00
2018-04-10T08:05:55.984Z,10484.00
2018-04-10T08:06:56.047Z,10720.00
2018-04-10T08:07:56.108Z,10948.00
2018-04-10T08:08:56.169Z,11352.00
2018-04-10T08:09:56.230Z,11864.00
2018-04-10T08:10:56.290Z,13044.00
2018-04-10T08:11:56.353Z,14128.00
2018-04-10T08:12:56.414Z,15324.00
2018-04-10T08:13:56.475Z,16428.00
2018-04-10T08:14:56.544Z,17304.00
2018-04-10T08:15:56.598Z,17304.00
2018-04-10T08:16:56.659Z,17064.00
2018-04-10T08:17:56.720Z,16656.00
2018-04-10T08:18:56.783Z,16348.00
2018-04-10T08:19:56.996Z,16552.00
2018-04-10T08:20:56.914Z,16464.00
2018-04-10T08:21:56.971Z,16268.00
2018-04-10T08:22:57.030Z,16356.00
2018-04-10T08:23:57.092Z,16800.00
2018-04-10T08:24:57.154Z,16852.00
2018-04-10T08:25:57.215Z,16804.00
2018-04-10T08:26:57.277Z,16348.00
2018-04-10T08:27:57.339Z,16320.00
2018-04-10T08:28:57.401Z,16624.00
2018-04-10T08:29:57.462Z,17260.00
2018-04-10T08:30:57.677Z,18176.00
2018-04-10T08:31:57.592Z,18240.00
2018-04-10T08:32:57.651Z,17528.00
2018-04-10T08:33:57.714Z,17028.00
2018-04-10T08:34:57.776Z,16716.00
2018-04-10T08:35:57.839Z,16576.00
2018-04-10T08:36:57.903Z,16264.00
2018-04-10T08:37:57.966Z,16284.00
2018-04-10T08:38:58.031Z,16488.00
2018-04-10T08:39:58.091Z,16972.00
2018-04-10T08:40:58.154Z,17256.00
2018-04-10T08:41:58.216Z,17516.00
2018-04-10T08:42:58.284Z,17888.00
2018-04-10T08:43:58.344Z,18112.00
2018-04-10T08:44:58.415Z,18112.00
2018-04-10T08:45:58.469Z,18112.00
2018-04-10T08:46:58.533Z,18368.00
2018-04-10T08:47:58.597Z,18720.00
2018-04-10T08:48:58.661Z,19200.00
2018-04-10T08:49:58.723Z,19488.00
2018-04-10T08:50:58.788Z,19584.00
2018-04-10T08:51:59.442Z,19776.00
2018-04-10T08:52:58.916Z,20000.00
2018-04-10T08:53:58.979Z,20160.00
2018-04-10T08:54:59.042Z,20352.00
2018-04-10T08:55:59.107Z,20640.00
2018-04-10T08:56:59.171Z,20576.00
2018-04-10T08:57:59.233Z,20256.00
2018-04-10T08:58:59.299Z,19840.00
2018-04-10T08:59:59.382Z,19616.00
2018-04-10T09:00:59.427Z,19360.00
2018-04-10T09:01:59.490Z,19392.00
2018-04-10T09:02:59.555Z,19456.00
2018-04-10T09:03:59.620Z,19744.00
2018-04-10T09:04:59.683Z,19968.00
2018-04-10T09:05:59.747Z,20256.00
2018-04-10T09:06:59.812Z,20480.00
2018-04-10T09:07:59.876Z,20416.00
2018-04-10T09:08:59.939Z,20352.00
2018-04-10T09:10:00.006Z,20064.00
2018-04-10T09:11:00.069Z,20160.00
2018-04-10T09:12:00.133Z,20512.00
2018-04-10T09:13:00.199Z,20960.00
2018-04-10T09:14:00.261Z,21728.00
2018-04-10T09:15:00.329Z,22112.00
2018-04-10T09:16:00.391Z,22560.00
2018-04-10T09:17:00.456Z,22944.00
2018-04-10T09:18:00.524Z,23040.00
2018-04-10T09:19:00.584Z,22816.00
2018-04-10T09:20:00.650Z,22752.00
2018-04-10T09:21:00.715Z,22464.00
2018-04-10T09:22:00.780Z,22432.00
2018-04-10T09:23:00.845Z,22432.00
2018-04-10T09:24:00.911Z,22208.00
2018-04-10T09:25:00.974Z,22560.00
2018-04-10T09:26:01.039Z,23392.00
2018-04-10T09:27:01.114Z,24576.00
2018-04-10T09:28:01.171Z,24928.00
2018-04-10T09:29:01.236Z,24800.00
2018-04-10T09:30:01.300Z,24896.00
2018-04-10T09:31:01.365Z,25088.00
2018-04-10T09:32:01.431Z,25024.00
2018-04-10T09:33:02.344Z,24864.00
2018-04-10T09:34:02.272Z,24512.00
2018-04-10T09:35:01.626Z,23904.00
2018-04-10T09:36:01.695Z,23584.00
2018-04-10T09:37:02.078Z,23200.00
2018-04-10T09:38:01.825Z,23168.00
2018-04-10T09:39:01.890Z,23072.00
2018-04-10T09:40:01.956Z,23072.00
2018-04-10T09:41:02.023Z,22912.00
2018-04-10T09:42:02.091Z,22624.00
2018-04-10T09:43:02.154Z,22368.00
2018-04-10T09:44:02.225Z,22464.00
2018-04-10T09:45:02.286Z,22752.00
2018-04-10T09:46:02.355Z,23200.00
2018-04-10T09:47:02.448Z,24224.00
2018-04-10T09:48:02.482Z,25440.00
2018-04-10T09:49:02.549Z,26016.00
2018-04-10T09:50:02.751Z,25760.00
2018-04-10T09:51:02.681Z,25440.00
2018-04-10T09:52:02.748Z,25600.00
2018-04-10T09:53:02.815Z,25952.00
2018-04-10T09:54:02.884Z,26016.00
2018-04-10T09:55:02.959Z,25792.00
2018-04-10T09:56:03.020Z,25600.00
2018-04-10T09:57:03.078Z,25600.00
2018-04-10T09:58:03.148Z,25600.00
2018-04-10T09:59:03.210Z,25472.00
2018-04-10T10:00:03.278Z,25536.00
2018-04-10T10:01:03.349Z,25664.00
2018-04-10T10:02:03.409Z,26112.00
2018-04-10T10:03:03.478Z,27040.00
2018-04-10T10:04:03.543Z,27712.00
2018-04-10T10:05:03.611Z,27712.00
2018-04-10T10:06:03.675Z,27168.00
2018-04-10T10:07:03.745Z,26560.00
2018-04-10T10:08:03.809Z,26112.00
2018-04-10T10:09:03.877Z,26016.00
2018-04-10T10:10:03.943Z,26112.00
2018-04-10T10:11:04.010Z,26432.00
2018-04-10T10:12:04.077Z,27232.00
2018-04-10T10:13:04.143Z,27808.00
2018-04-10T10:14:04.211Z,28576.00
2018-04-10T10:15:04.277Z,28896.00
2018-04-10T10:16:04.346Z,28736.00
2018-04-10T10:17:04.414Z,28320.00
2018-04-10T10:18:04.480Z,27936.00
2018-04-10T10:19:04.547Z,27648.00
2018-04-10T10:20:04.613Z,27904.00
2018-04-10T10:21:04.681Z,27456.00
2018-04-10T10:22:04.749Z,27136.00
2018-04-10T10:23:04.837Z,27104.00
2018-04-10T10:24:04.884Z,27200.00
2018-04-10T10:25:04.956Z,27136.00
2018-04-10T10:26:05.040Z,26752.00
2018-04-10T10:27:05.087Z,26464.00
2018-04-10T10:28:05.154Z,27200.00
2018-04-10T10:29:05.221Z,27136.00
2018-04-10T10:30:05.289Z,27200.00
2018-04-10T10:31:05.356Z,27168.00
2018-04-10T10:32:05.425Z,26880.00
2018-04-10T10:33:05.496Z,27168.00
2018-04-10T10:34:05.558Z,27104.00
2018-04-10T10:35:05.776Z,27008.00
2018-04-10T10:36:05.701Z,27872.00
2018-04-10T10:37:05.765Z,28448.00
2018-04-10T10:38:05.829Z,29088.00
2018-04-10T10:39:05.924Z,29248.00
2018-04-10T10:40:05.964Z,31136.00
2018-04-10T10:41:06.032Z,30432.00
2018-04-10T10:42:06.100Z,32224.00
2018-04-10T10:43:06.168Z,31776.00
2018-04-10T10:44:06.236Z,37760.00
2018-04-10T10:45:06.303Z,47584.00
2018-04-10T10:46:06.525Z,48736.00
2018-04-10T10:47:06.492Z,47936.00
2018-04-10T10:48:06.512Z,46560.00
2018-04-10T10:49:06.577Z,37024.00
2018-04-10T10:50:06.646Z,30528.00
2018-04-10T10:51:06.719Z,27648.00
2018-04-10T10:52:06.784Z,26240.00
2018-04-10T10:53:06.855Z,24896.00
2018-04-10T10:54:06.923Z,23200.00
2018-04-10T10:55:06.991Z,21216.00
2018-04-10T10:56:07.060Z,19424.00
2018-04-10T10:57:07.131Z,17728.00
2018-04-10T10:58:07.220Z,15920.00
2018-04-10T10:59:07.268Z,14668.00
2018-04-10T11:00:07.337Z,13872.00
2018-04-10T11:01:07.406Z,13728.00
2018-04-10T11:02:07.472Z,13836.00
2018-04-10T11:03:07.741Z,14924.00
2018-04-10T11:04:07.611Z,16184.00
2018-04-10T11:05:07.676Z,17264.00
2018-04-10T11:06:07.744Z,17984.00
2018-04-10T11:07:07.812Z,18304.00
2018-04-10T11:08:07.881Z,17920.00
2018-04-10T11:09:07.953Z,18112.00
2018-04-10T11:10:08.011Z,21312.00
2018-04-10T11:11:08.080Z,22688.00
2018-04-10T11:12:08.147Z,30848.00
2018-04-10T11:13:08.214Z,29440.00
2018-04-10T11:14:08.286Z,31872.00
2018-04-10T11:15:08.347Z,34336.00
2018-04-10T11:16:08.413Z,36352.00
2018-04-10T11:17:08.481Z,40096.00
2018-04-10T11:18:08.548Z,36128.00
2018-04-10T11:19:09.177Z,34496.00
2018-04-10T11:20:08.834Z,30464.00
2018-04-10T11:21:08.749Z,28384.00
2018-04-10T11:22:08.817Z,27648.00
2018-04-10T11:23:09.283Z,26944.00
2018-04-10T11:24:08.952Z,26112.00
2018-04-10T11:25:09.019Z,25696.00
2018-04-10T11:26:09.088Z,27136.00
2018-04-10T11:27:09.155Z,29344.00
2018-04-10T11:28:09.221Z,30464.00
2018-04-10T11:29:09.292Z,31392.00
2018-04-10T11:30:09.506Z,33184.00
2018-04-10T11:31:09.424Z,34368.00
2018-04-10T11:32:09.492Z,34272.00
2018-04-10T11:33:09.560Z,32832.00
2018-04-10T11:34:09.626Z,31744.00
2018-04-10T11:35:09.693Z,30464.00
2018-04-10T11:36:09.762Z,30400.00
2018-04-10T11:37:09.829Z,31008.00
2018-04-10T11:38:09.898Z,31872.00
2018-04-10T11:39:10.008Z,32672.00
2018-04-10T11:40:10.032Z,30560.00
2018-04-10T11:41:10.099Z,29760.00
2018-04-10T11:42:10.164Z,37888.00
2018-04-10T11:43:10.232Z,33280.00
2018-04-10T11:44:10.299Z,31968.00
2018-04-10T11:45:10.366Z,34048.00
2018-04-10T11:46:10.436Z,38880.00
2018-04-10T11:47:10.499Z,37824.00
2018-04-10T11:48:10.568Z,34016.00
2018-04-10T11:49:10.635Z,32384.00
2018-04-10T11:50:11.012Z,30112.00
2018-04-10T11:51:10.780Z,28864.00
2018-04-10T11:52:10.838Z,29088.00
2018-04-10T11:53:10.906Z,32160.00
2018-04-10T11:54:10.973Z,65440.00
2018-04-10T11:55:11.041Z,60896.00
2018-04-10T11:56:11.108Z,49536.00
2018-04-10T11:57:11.176Z,54304.00
2018-04-10T11:58:11.248Z,34176.00
2018-04-10T11:59:11.312Z,64256.00
2018-04-10T12:00:11.428Z,66592.00
2018-04-10T12:01:11.449Z,68096.00
2018-04-10T12:02:11.518Z,70432.00
2018-04-10T12:03:11.585Z,70688.00
2018-04-10T12:04:11.655Z,69760.00
2018-04-10T12:05:11.724Z,71232.00
2018-04-10T12:06:11.792Z,33536.00
2018-04-10T12:07:11.861Z,28896.00
2018-04-10T12:08:11.942Z,26176.00
2018-04-10T12:09:12.000Z,25888.00
2018-04-10T12:10:12.070Z,37056.00
2018-04-10T12:11:12.140Z,67328.00
2018-04-10T12:12:12.209Z,76064.00
2018-04-10T12:13:12.278Z,77888.00
2018-04-10T12:14:12.348Z,76064.00
2018-04-10T12:15:12.726Z,73088.00
2018-04-10T12:16:12.487Z,70688.00
2018-04-10T12:17:12.560Z,63808.00
2018-04-10T12:18:12.627Z,66464.00
2018-04-10T12:19:12.696Z,33184.00
2018-04-10T12:20:12.769Z,28192.00
2018-04-10T12:21:12.838Z,27936.00
2018-04-10T12:22:12.910Z,27360.00
2018-04-10T12:23:12.981Z,27872.00
2018-04-10T12:24:13.051Z,27744.00
2018-04-10T12:25:13.124Z,27744.00
2018-04-10T12:26:13.190Z,28160.00